首页
METAR-TAF:

METAR-TAF

机场 :

杰克逊, 怀俄明州, 美国

纬度: 43-36N, 经度: 110-44W, 海拔: 1964米

当前天气观测

该预报发布于52分钟前的00:56 UTC
风速11节,风向
温度 27°C
湿度 26%
气压 1028 hPa
能見度: 16.1公里
天空无云

METAR: KJAC 210056Z 01011KT 10SM CLR 27/06 A3035 RMK AO2 SLP210 T02670056

时间: 19:48 (01:48 UTC)

预报

该预报发布于2小时和18分钟前的23:30 UTC
预报有效从21日的 00点(UTC)到 21日的 24点(UTC)
风速12节,风向
能見度: 10公里
散云层高于3500英尺
多云层高于10000英尺
小雨
从 21日的 0130点(UTC)
风速7节,风向北转东北
能見度: 10公里
散云层高于10000英尺
从 21日的 0400点(UTC)
风速6节,风向北转东北
能見度: 10公里
少量云层高于10000英尺
从 21日的 1700点(UTC)
风速6节,风向
能見度: 10公里
散云层高于10000英尺

TAF: KJAC 202330Z 2100/2124 35012KT P6SM -RA SCT035 BKN100 FM210130 02007KT P6SM SCT100 FM210400 02006KT P6SM FEW100 FM211700 36006KT P6SM SCT100

超过4000个机场的气象观测和天气预报(METAR&TAF报告)。

可查询的气象台以黄色和红色小点在地图上表示。

将鼠标移到小点上方,可查看气象台名称。

然后点击查看天气观测和预报。

如需切换地图:点击带黑十字的绿色按钮放大地图;点击带横线的绿色按钮缩小地图;或者点击绿色箭头查看邻近地区的地图。


METAR-TAF: